sensor_id;sensor_type;location;lat;lon;timestamp;temperature;humidity
46730;DHT22;32476;50.002;11.854;2022-10-31T00:01:18;11.30;99.90
46730;DHT22;32476;50.002;11.854;2022-10-31T00:03:46;11.30;99.90
46730;DHT22;32476;50.002;11.854;2022-10-31T00:06:15;11.10;99.90
46730;DHT22;32476;50.002;11.854;2022-10-31T00:08:51;10.90;99.90
46730;DHT22;32476;50.002;11.854;2022-10-31T00:11:21;10.70;99.90
46730;DHT22;32476;50.002;11.854;2022-10-31T00:13:47;10.60;99.90
46730;DHT22;32476;50.002;11.854;2022-10-31T00:16:22;10.60;99.90
46730;DHT22;32476;50.002;11.854;2022-10-31T00:18:56;10.60;99.90
46730;DHT22;32476;50.002;11.854;2022-10-31T00:21:26;10.50;99.90
46730;DHT22;32476;50.002;11.854;2022-10-31T00:23:56;10.70;99.90
46730;DHT22;32476;50.002;11.854;2022-10-31T00:26:22;10.60;99.90
46730;DHT22;32476;50.002;11.854;2022-10-31T00:28:48;10.70;99.90
46730;DHT22;32476;50.002;11.854;2022-10-31T00:31:16;10.60;99.90
46730;DHT22;32476;50.002;11.854;2022-10-31T00:33:42;10.50;99.90
46730;DHT22;32476;50.002;11.854;2022-10-31T00:36:14;10.40;99.90
46730;DHT22;32476;50.002;11.854;2022-10-31T00:38:44;10.30;99.90
46730;DHT22;32476;50.002;11.854;2022-10-31T00:41:12;10.30;99.90
46730;DHT22;32476;50.002;11.854;2022-10-31T00:43:38;10.20;99.90
46730;DHT22;32476;50.002;11.854;2022-10-31T00:46:06;10.10;99.90
46730;DHT22;32476;50.002;11.854;2022-10-31T00:48:31;10.10;99.90
46730;DHT22;32476;50.002;11.854;2022-10-31T00:50:58;10.00;99.90
46730;DHT22;32476;50.002;11.854;2022-10-31T00:53:25;10.00;99.90
46730;DHT22;32476;50.002;11.854;2022-10-31T00:55:51;10.10;99.90
46730;DHT22;32476;50.002;11.854;2022-10-31T00:58:17;10.00;99.90
46730;DHT22;32476;50.002;11.854;2022-10-31T01:00:50;10.10;99.90
46730;DHT22;32476;50.002;11.854;2022-10-31T01:03:23;10.10;99.90
46730;DHT22;32476;50.002;11.854;2022-10-31T01:06:03;10.10;99.90
46730;DHT22;32476;50.002;11.854;2022-10-31T01:08:39;10.00;99.90
46730;DHT22;32476;50.002;11.854;2022-10-31T01:11:15;10.00;99.90
46730;DHT22;32476;50.002;11.854;2022-10-31T01:13:44;9.90;99.90
46730;DHT22;32476;50.002;11.854;2022-10-31T01:16:15;9.80;99.90
46730;DHT22;32476;50.002;11.854;2022-10-31T01:18:42;9.80;99.90
46730;DHT22;32476;50.002;11.854;2022-10-31T01:21:12;9.80;99.90
46730;DHT22;32476;50.002;11.854;2022-10-31T01:23:41;9.90;99.90
46730;DHT22;32476;50.002;11.854;2022-10-31T01:28:39;9.90;99.90
46730;DHT22;32476;50.002;11.854;2022-10-31T01:31:11;9.80;99.90
46730;DHT22;32476;50.002;11.854;2022-10-31T01:33:37;9.80;99.90
46730;DHT22;32476;50.002;11.854;2022-10-31T01:38:50;10.10;99.90
46730;DHT22;32476;50.002;11.854;2022-10-31T01:41:24;10.00;99.90
46730;DHT22;32476;50.002;11.854;2022-10-31T01:43:59;9.90;99.90
46730;DHT22;32476;50.002;11.854;2022-10-31T01:47:08;10.00;99.90
46730;DHT22;32476;50.002;11.854;2022-10-31T01:49:57;10.10;99.90
46730;DHT22;32476;50.002;11.854;2022-10-31T01:52:46;10.40;99.90
46730;DHT22;32476;50.002;11.854;2022-10-31T01:55:28;10.40;99.90
46730;DHT22;32476;50.002;11.854;2022-10-31T01:57:59;10.60;99.90
46730;DHT22;32476;50.002;11.854;2022-10-31T02:00:30;10.50;99.90
46730;DHT22;32476;50.002;11.854;2022-10-31T02:02:56;10.40;99.90
46730;DHT22;32476;50.002;11.854;2022-10-31T02:05:25;10.30;99.90
46730;DHT22;32476;50.002;11.854;2022-10-31T02:10:37;10.10;99.90
46730;DHT22;32476;50.002;11.854;2022-10-31T02:13:07;10.10;99.90
46730;DHT22;32476;50.002;11.854;2022-10-31T02:15:35;10.00;99.90
46730;DHT22;32476;50.002;11.854;2022-10-31T02:18:02;10.00;99.90
46730;DHT22;32476;50.002;11.854;2022-10-31T02:21:19;10.00;99.90
46730;DHT22;32476;50.002;11.854;2022-10-31T02:30:25;10.10;99.90
46730;DHT22;32476;50.002;11.854;2022-10-31T02:33:30;10.10;99.90
46730;DHT22;32476;50.002;11.854;2022-10-31T02:45:00;11.70;99.90
46730;DHT22;32476;50.002;11.854;2022-10-31T02:47:35;11.80;99.90
46730;DHT22;32476;50.002;11.854;2022-10-31T02:50:27;11.80;99.90
46730;DHT22;32476;50.002;11.854;2022-10-31T02:52:55;11.70;99.90
46730;DHT22;32476;50.002;11.854;2022-10-31T02:57:58;11.70;99.90
46730;DHT22;32476;50.002;11.854;2022-10-31T03:00:37;11.30;99.90
46730;DHT22;32476;50.002;11.854;2022-10-31T03:03:16;11.00;99.90
46730;DHT22;32476;50.002;11.854;2022-10-31T03:06:00;10.90;99.90
46730;DHT22;32476;50.002;11.854;2022-10-31T03:11:17;10.90;99.90
46730;DHT22;32476;50.002;11.854;2022-10-31T03:13:57;11.00;99.90
46730;DHT22;32476;50.002;11.854;2022-10-31T03:16:41;10.90;99.90
46730;DHT22;32476;50.002;11.854;2022-10-31T03:19:15;10.90;99.90
46730;DHT22;32476;50.002;11.854;2022-10-31T03:21:50;11.00;99.90
46730;DHT22;32476;50.002;11.854;2022-10-31T03:24:20;11.00;99.90
46730;DHT22;32476;50.002;11.854;2022-10-31T03:26:53;11.00;99.90
46730;DHT22;32476;50.002;11.854;2022-10-31T03:29:23;10.80;99.90
46730;DHT22;32476;50.002;11.854;2022-10-31T03:32:06;10.60;99.90
46730;DHT22;32476;50.002;11.854;2022-10-31T03:34:36;10.40;99.90
46730;DHT22;32476;50.002;11.854;2022-10-31T03:37:07;10.00;99.90
46730;DHT22;32476;50.002;11.854;2022-10-31T03:39:36;9.80;99.90
46730;DHT22;32476;50.002;11.854;2022-10-31T03:42:10;9.60;99.90
46730;DHT22;32476;50.002;11.854;2022-10-31T03:44:43;9.60;99.90
46730;DHT22;32476;50.002;11.854;2022-10-31T03:47:17;9.90;99.90
46730;DHT22;32476;50.002;11.854;2022-10-31T03:49:43;9.80;99.90
46730;DHT22;32476;50.002;11.854;2022-10-31T03:58:02;10.40;99.90
46730;DHT22;32476;50.002;11.854;2022-10-31T04:00:39;10.50;99.90
46730;DHT22;32476;50.002;11.854;2022-10-31T04:05:45;10.40;99.90
46730;DHT22;32476;50.002;11.854;2022-10-31T04:08:17;10.10;99.90
46730;DHT22;32476;50.002;11.854;2022-10-31T04:10:49;10.00;99.90
46730;DHT22;32476;50.002;11.854;2022-10-31T04:13:20;10.00;99.90
46730;DHT22;32476;50.002;11.854;2022-10-31T04:15:52;10.00;99.90
46730;DHT22;32476;50.002;11.854;2022-10-31T04:18:19;10.20;99.90
46730;DHT22;32476;50.002;11.854;2022-10-31T04:20:47;10.20;99.90
46730;DHT22;32476;50.002;11.854;2022-10-31T04:23:24;10.30;99.90
46730;DHT22;32476;50.002;11.854;2022-10-31T04:25:51;10.30;99.90
46730;DHT22;32476;50.002;11.854;2022-10-31T04:28:19;10.30;99.90
46730;DHT22;32476;50.002;11.854;2022-10-31T04:30:45;10.30;99.90
46730;DHT22;32476;50.002;11.854;2022-10-31T04:33:11;10.30;99.90
46730;DHT22;32476;50.002;11.854;2022-10-31T04:35:38;10.30;99.90
46730;DHT22;32476;50.002;11.854;2022-10-31T04:38:04;10.30;99.90
46730;DHT22;32476;50.002;11.854;2022-10-31T04:40:30;10.30;99.90
46730;DHT22;32476;50.002;11.854;2022-10-31T04:42:57;10.40;99.90
46730;DHT22;32476;50.002;11.854;2022-10-31T04:45:23;10.40;99.90
46730;DHT22;32476;50.002;11.854;2022-10-31T04:47:49;10.40;99.90
46730;DHT22;32476;50.002;11.854;2022-10-31T04:50:17;10.40;99.90
46730;DHT22;32476;50.002;11.854;2022-10-31T04:52:44;10.50;99.90
46730;DHT22;32476;50.002;11.854;2022-10-31T04:55:12;10.40;99.90
46730;DHT22;32476;50.002;11.854;2022-10-31T04:57:41;10.40;99.90
46730;DHT22;32476;50.002;11.854;2022-10-31T05:00:08;10.40;99.90
46730;DHT22;32476;50.002;11.854;2022-10-31T05:02:52;10.40;99.90
46730;DHT22;32476;50.002;11.854;2022-10-31T05:05:25;10.30;99.90
46730;DHT22;32476;50.002;11.854;2022-10-31T05:07:54;10.30;99.90
46730;DHT22;32476;50.002;11.854;2022-10-31T05:10:23;10.30;99.90
46730;DHT22;32476;50.002;11.854;2022-10-31T05:12:53;10.30;99.90
46730;DHT22;32476;50.002;11.854;2022-10-31T05:15:25;10.30;99.90
46730;DHT22;32476;50.002;11.854;2022-10-31T05:17:53;10.20;99.90
46730;DHT22;32476;50.002;11.854;2022-10-31T05:20:22;10.20;99.90
46730;DHT22;32476;50.002;11.854;2022-10-31T05:22:55;10.20;99.90
46730;DHT22;32476;50.002;11.854;2022-10-31T05:25:26;10.30;99.90
46730;DHT22;32476;50.002;11.854;2022-10-31T05:27:59;10.20;99.90
46730;DHT22;32476;50.002;11.854;2022-10-31T05:30:28;10.20;99.90
46730;DHT22;32476;50.002;11.854;2022-10-31T05:32:56;10.20;99.90
46730;DHT22;32476;50.002;11.854;2022-10-31T05:35:29;10.10;99.90
46730;DHT22;32476;50.002;11.854;2022-10-31T05:37:57;10.20;99.90
46730;DHT22;32476;50.002;11.854;2022-10-31T05:40:26;10.20;99.90
46730;DHT22;32476;50.002;11.854;2022-10-31T05:42:54;10.20;99.90
46730;DHT22;32476;50.002;11.854;2022-10-31T05:45:22;10.30;99.90
46730;DHT22;32476;50.002;11.854;2022-10-31T05:48:02;10.40;99.90
46730;DHT22;32476;50.002;11.854;2022-10-31T05:50:30;10.40;99.90
46730;DHT22;32476;50.002;11.854;2022-10-31T05:53:03;10.50;99.90
46730;DHT22;32476;50.002;11.854;2022-10-31T05:55:31;10.50;99.90
46730;DHT22;32476;50.002;11.854;2022-10-31T05:57:59;10.30;99.90
46730;DHT22;32476;50.002;11.854;2022-10-31T06:00:25;10.10;99.90
46730;DHT22;32476;50.002;11.854;2022-10-31T06:02:59;10.00;99.90
46730;DHT22;32476;50.002;11.854;2022-10-31T06:05:31;9.90;99.90
46730;DHT22;32476;50.002;11.854;2022-10-31T06:07:57;9.90;99.90
46730;DHT22;32476;50.002;11.854;2022-10-31T06:10:24;9.80;99.90
46730;DHT22;32476;50.002;11.854;2022-10-31T06:12:51;9.80;99.90
46730;DHT22;32476;50.002;11.854;2022-10-31T06:15:17;9.80;99.90
46730;DHT22;32476;50.002;11.854;2022-10-31T06:17:43;9.80;99.90
46730;DHT22;32476;50.002;11.854;2022-10-31T06:20:11;9.80;99.90
46730;DHT22;32476;50.002;11.854;2022-10-31T06:22:37;9.70;99.90
46730;DHT22;32476;50.002;11.854;2022-10-31T06:25:03;9.80;99.90
46730;DHT22;32476;50.002;11.854;2022-10-31T06:27:31;9.90;99.90
46730;DHT22;32476;50.002;11.854;2022-10-31T06:29:57;10.00;99.90
46730;DHT22;32476;50.002;11.854;2022-10-31T06:32:23;10.00;99.90
46730;DHT22;32476;50.002;11.854;2022-10-31T06:34:50;10.00;99.90
46730;DHT22;32476;50.002;11.854;2022-10-31T06:37:16;9.80;99.90
46730;DHT22;32476;50.002;11.854;2022-10-31T06:39:46;9.80;99.90
46730;DHT22;32476;50.002;11.854;2022-10-31T06:42:16;9.80;99.90
46730;DHT22;32476;50.002;11.854;2022-10-31T06:44:42;9.70;99.90
46730;DHT22;32476;50.002;11.854;2022-10-31T06:47:08;10.00;99.90
46730;DHT22;32476;50.002;11.854;2022-10-31T06:49:35;10.20;99.90
46730;DHT22;32476;50.002;11.854;2022-10-31T06:52:01;10.40;99.90
46730;DHT22;32476;50.002;11.854;2022-10-31T06:54:27;10.50;99.90
46730;DHT22;32476;50.002;11.854;2022-10-31T06:56:54;10.60;99.90
46730;DHT22;32476;50.002;11.854;2022-10-31T06:59:21;10.70;99.90
46730;DHT22;32476;50.002;11.854;2022-10-31T07:01:50;10.80;99.90
46730;DHT22;32476;50.002;11.854;2022-10-31T07:04:22;10.90;99.90
46730;DHT22;32476;50.002;11.854;2022-10-31T07:06:51;11.00;99.90
46730;DHT22;32476;50.002;11.854;2022-10-31T07:09:19;11.20;99.90
46730;DHT22;32476;50.002;11.854;2022-10-31T07:11:46;11.30;99.90
46730;DHT22;32476;50.002;11.854;2022-10-31T07:14:12;11.30;99.90
46730;DHT22;32476;50.002;11.854;2022-10-31T07:16:39;11.20;99.90
46730;DHT22;32476;50.002;11.854;2022-10-31T07:19:05;11.10;99.90
46730;DHT22;32476;50.002;11.854;2022-10-31T07:21:31;11.30;99.90
46730;DHT22;32476;50.002;11.854;2022-10-31T07:23:58;11.40;99.90
46730;DHT22;32476;50.002;11.854;2022-10-31T07:26:24;11.30;99.90
46730;DHT22;32476;50.002;11.854;2022-10-31T07:28:51;11.40;99.90
46730;DHT22;32476;50.002;11.854;2022-10-31T07:31:19;11.40;99.90
46730;DHT22;32476;50.002;11.854;2022-10-31T07:33:45;11.50;99.90
46730;DHT22;32476;50.002;11.854;2022-10-31T07:36:11;11.60;99.90
46730;DHT22;32476;50.002;11.854;2022-10-31T07:38:38;11.60;99.90
46730;DHT22;32476;50.002;11.854;2022-10-31T07:41:04;11.70;99.90
46730;DHT22;32476;50.002;11.854;2022-10-31T07:43:30;11.70;99.90
46730;DHT22;32476;50.002;11.854;2022-10-31T07:45:58;12.00;99.90
46730;DHT22;32476;50.002;11.854;2022-10-31T07:48:24;12.30;99.90
46730;DHT22;32476;50.002;11.854;2022-10-31T07:50:50;12.50;99.90
46730;DHT22;32476;50.002;11.854;2022-10-31T07:53:17;12.50;99.90
46730;DHT22;32476;50.002;11.854;2022-10-31T07:55:43;12.70;99.90
46730;DHT22;32476;50.002;11.854;2022-10-31T07:58:14;12.70;99.90
46730;DHT22;32476;50.002;11.854;2022-10-31T08:00:44;13.00;99.90
46730;DHT22;32476;50.002;11.854;2022-10-31T08:03:17;13.10;99.90
46730;DHT22;32476;50.002;11.854;2022-10-31T08:05:45;13.20;99.90
46730;DHT22;32476;50.002;11.854;2022-10-31T08:08:12;13.30;99.90
46730;DHT22;32476;50.002;11.854;2022-10-31T08:10:39;13.50;99.90
46730;DHT22;32476;50.002;11.854;2022-10-31T08:13:12;13.60;99.90
46730;DHT22;32476;50.002;11.854;2022-10-31T08:15:40;13.80;99.90
46730;DHT22;32476;50.002;11.854;2022-10-31T08:18:13;13.90;99.90
46730;DHT22;32476;50.002;11.854;2022-10-31T08:20:40;14.10;99.90
46730;DHT22;32476;50.002;11.854;2022-10-31T08:23:09;14.30;99.90
46730;DHT22;32476;50.002;11.854;2022-10-31T08:25:37;14.50;99.90
46730;DHT22;32476;50.002;11.854;2022-10-31T08:28:03;14.60;99.90
46730;DHT22;32476;50.002;11.854;2022-10-31T08:30:33;14.70;99.90
46730;DHT22;32476;50.002;11.854;2022-10-31T08:33:12;14.80;99.90
46730;DHT22;32476;50.002;11.854;2022-10-31T08:35:44;15.00;99.90
46730;DHT22;32476;50.002;11.854;2022-10-31T08:38:12;15.10;99.90
46730;DHT22;32476;50.002;11.854;2022-10-31T08:40:38;15.20;99.90
46730;DHT22;32476;50.002;11.854;2022-10-31T08:45:36;15.60;99.90
46730;DHT22;32476;50.002;11.854;2022-10-31T08:48:04;15.80;99.90
46730;DHT22;32476;50.002;11.854;2022-10-31T08:50:35;15.90;99.90
46730;DHT22;32476;50.002;11.854;2022-10-31T08:53:06;16.10;99.90
46730;DHT22;32476;50.002;11.854;2022-10-31T08:55:46;16.30;99.90
46730;DHT22;32476;50.002;11.854;2022-10-31T08:58:14;16.60;99.90
46730;DHT22;32476;50.002;11.854;2022-10-31T09:00:45;16.90;99.90
46730;DHT22;32476;50.002;11.854;2022-10-31T09:03:15;17.10;99.90
46730;DHT22;32476;50.002;11.854;2022-10-31T09:05:42;17.30;99.90
46730;DHT22;32476;50.002;11.854;2022-10-31T09:08:10;17.40;99.90
46730;DHT22;32476;50.002;11.854;2022-10-31T09:10:37;17.70;99.90
46730;DHT22;32476;50.002;11.854;2022-10-31T09:13:06;17.70;99.90
46730;DHT22;32476;50.002;11.854;2022-10-31T09:15:37;17.80;99.90
46730;DHT22;32476;50.002;11.854;2022-10-31T09:18:05;17.90;99.90
46730;DHT22;32476;50.002;11.854;2022-10-31T09:20:33;18.00;99.90
46730;DHT22;32476;50.002;11.854;2022-10-31T09:23:07;18.00;99.90
46730;DHT22;32476;50.002;11.854;2022-10-31T09:25:35;18.20;99.90
46730;DHT22;32476;50.002;11.854;2022-10-31T09:28:05;18.10;99.90
46730;DHT22;32476;50.002;11.854;2022-10-31T09:30:33;18.10;99.90
46730;DHT22;32476;50.002;11.854;2022-10-31T09:33:05;18.20;99.90
46730;DHT22;32476;50.002;11.854;2022-10-31T09:35:36;18.30;99.90
46730;DHT22;32476;50.002;11.854;2022-10-31T09:38:05;18.30;99.90
46730;DHT22;32476;50.002;11.854;2022-10-31T09:46:03;18.60;99.90
46730;DHT22;32476;50.002;11.854;2022-10-31T09:57:25;19.00;99.90
46730;DHT22;32476;50.002;11.854;2022-10-31T09:59:55;19.10;99.90
46730;DHT22;32476;50.002;11.854;2022-10-31T10:02:38;19.20;99.90
46730;DHT22;32476;50.002;11.854;2022-10-31T10:05:36;19.40;99.90
46730;DHT22;32476;50.002;11.854;2022-10-31T10:08:15;19.40;99.90
46730;DHT22;32476;50.002;11.854;2022-10-31T10:10:51;19.50;99.90
46730;DHT22;32476;50.002;11.854;2022-10-31T10:16:32;19.50;99.90
46730;DHT22;32476;50.002;11.854;2022-10-31T10:22:29;19.70;99.90
46730;DHT22;32476;50.002;11.854;2022-10-31T10:25:27;19.70;99.90
46730;DHT22;32476;50.002;11.854;2022-10-31T10:33:32;20.00;99.90
46730;DHT22;32476;50.002;11.854;2022-10-31T10:36:08;19.80;99.90
46730;DHT22;32476;50.002;11.854;2022-10-31T10:38:51;19.80;99.90
46730;DHT22;32476;50.002;11.854;2022-10-31T10:41:24;19.80;99.90
46730;DHT22;32476;50.002;11.854;2022-10-31T10:43:57;19.90;99.90
46730;DHT22;32476;50.002;11.854;2022-10-31T10:46:42;19.90;99.90
46730;DHT22;32476;50.002;11.854;2022-10-31T10:55:05;20.10;99.90
46730;DHT22;32476;50.002;11.854;2022-10-31T10:57:58;20.10;99.90
46730;DHT22;32476;50.002;11.854;2022-10-31T11:00:40;20.20;99.90
46730;DHT22;32476;50.002;11.854;2022-10-31T11:03:08;20.30;99.90
46730;DHT22;32476;50.002;11.854;2022-10-31T11:05:52;20.50;99.90
46730;DHT22;32476;50.002;11.854;2022-10-31T11:08:46;20.60;99.90
46730;DHT22;32476;50.002;11.854;2022-10-31T11:13:44;20.50;99.90
46730;DHT22;32476;50.002;11.854;2022-10-31T11:16:36;20.60;99.90
46730;DHT22;32476;50.002;11.854;2022-10-31T11:19:21;20.60;99.90
46730;DHT22;32476;50.002;11.854;2022-10-31T11:21:52;20.70;99.90
46730;DHT22;32476;50.002;11.854;2022-10-31T11:24:24;20.80;99.90
46730;DHT22;32476;50.002;11.854;2022-10-31T11:27:16;20.90;99.90
46730;DHT22;32476;50.002;11.854;2022-10-31T11:29:46;21.10;99.90
46730;DHT22;32476;50.002;11.854;2022-10-31T11:32:25;21.10;99.90
46730;DHT22;32476;50.002;11.854;2022-10-31T11:34:56;21.10;99.90
46730;DHT22;32476;50.002;11.854;2022-10-31T11:37:27;21.30;99.90
46730;DHT22;32476;50.002;11.854;2022-10-31T11:40:00;21.40;99.90
46730;DHT22;32476;50.002;11.854;2022-10-31T11:42:39;21.30;99.90
46730;DHT22;32476;50.002;11.854;2022-10-31T11:45:17;21.30;99.90
46730;DHT22;32476;50.002;11.854;2022-10-31T11:47:48;21.40;99.90
46730;DHT22;32476;50.002;11.854;2022-10-31T11:50:28;21.40;99.90
46730;DHT22;32476;50.002;11.854;2022-10-31T11:53:09;21.40;99.90
46730;DHT22;32476;50.002;11.854;2022-10-31T11:55:39;21.40;99.90
46730;DHT22;32476;50.002;11.854;2022-10-31T11:58:24;21.70;99.20
46730;DHT22;32476;50.002;11.854;2022-10-31T12:00:53;21.60;98.00
46730;DHT22;32476;50.002;11.854;2022-10-31T12:08:45;21.80;98.00
46730;DHT22;32476;50.002;11.854;2022-10-31T12:11:38;21.70;97.80
46730;DHT22;32476;50.002;11.854;2022-10-31T12:14:33;21.70;97.60
46730;DHT22;32476;50.002;11.854;2022-10-31T12:17:23;21.70;97.30
46730;DHT22;32476;50.002;11.854;2022-10-31T12:23:19;21.80;98.50
46730;DHT22;32476;50.002;11.854;2022-10-31T12:28:53;21.70;97.20
46730;DHT22;32476;50.002;11.854;2022-10-31T12:55:56;21.00;97.90
46730;DHT22;32476;50.002;11.854;2022-10-31T12:58:56;20.80;98.00
46730;DHT22;32476;50.002;11.854;2022-10-31T13:07:19;20.60;99.00
46730;DHT22;32476;50.002;11.854;2022-10-31T13:10:13;20.50;99.10
46730;DHT22;32476;50.002;11.854;2022-10-31T13:12:48;20.70;99.80
46730;DHT22;32476;50.002;11.854;2022-10-31T13:15:22;20.70;99.70
46730;DHT22;32476;50.002;11.854;2022-10-31T13:17:55;20.50;99.30
46730;DHT22;32476;50.002;11.854;2022-10-31T13:20:37;20.60;99.90
46730;DHT22;32476;50.002;11.854;2022-10-31T13:23:32;20.50;99.40
46730;DHT22;32476;50.002;11.854;2022-10-31T13:26:06;20.50;99.90
46730;DHT22;32476;50.002;11.854;2022-10-31T13:28:54;20.30;99.90
46730;DHT22;32476;50.002;11.854;2022-10-31T13:31:28;20.40;99.90
46730;DHT22;32476;50.002;11.854;2022-10-31T13:34:00;20.20;99.90
46730;DHT22;32476;50.002;11.854;2022-10-31T13:36:47;20.20;99.90
46730;DHT22;32476;50.002;11.854;2022-10-31T13:39:24;20.20;99.90
46730;DHT22;32476;50.002;11.854;2022-10-31T13:41:58;20.20;99.90
46730;DHT22;32476;50.002;11.854;2022-10-31T13:44:34;20.10;99.90
46730;DHT22;32476;50.002;11.854;2022-10-31T13:47:02;20.00;99.90
46730;DHT22;32476;50.002;11.854;2022-10-31T13:54:47;19.70;99.90
46730;DHT22;32476;50.002;11.854;2022-10-31T13:57:41;19.60;99.90
46730;DHT22;32476;50.002;11.854;2022-10-31T14:02:47;19.40;99.90
46730;DHT22;32476;50.002;11.854;2022-10-31T14:05:32;19.30;99.90
46730;DHT22;32476;50.002;11.854;2022-10-31T14:08:04;19.30;99.90
46730;DHT22;32476;50.002;11.854;2022-10-31T14:10:39;19.30;99.90
46730;DHT22;32476;50.002;11.854;2022-10-31T14:13:35;19.20;99.90
46730;DHT22;32476;50.002;11.854;2022-10-31T14:16:27;19.20;99.90
46730;DHT22;32476;50.002;11.854;2022-10-31T14:19:04;19.10;99.90
46730;DHT22;32476;50.002;11.854;2022-10-31T14:21:44;19.00;99.90
46730;DHT22;32476;50.002;11.854;2022-10-31T14:26:56;18.90;99.90
46730;DHT22;32476;50.002;11.854;2022-10-31T14:29:32;18.90;99.90
46730;DHT22;32476;50.002;11.854;2022-10-31T14:32:22;18.80;99.90
46730;DHT22;32476;50.002;11.854;2022-10-31T14:34:56;18.80;99.90
46730;DHT22;32476;50.002;11.854;2022-10-31T14:37:35;18.70;99.90
46730;DHT22;32476;50.002;11.854;2022-10-31T14:40:26;18.60;99.90
46730;DHT22;32476;50.002;11.854;2022-10-31T14:51:37;18.10;99.90
46730;DHT22;32476;50.002;11.854;2022-10-31T14:54:12;18.00;99.90
46730;DHT22;32476;50.002;11.854;2022-10-31T14:56:48;17.90;99.90
46730;DHT22;32476;50.002;11.854;2022-10-31T14:59:24;17.80;99.90
46730;DHT22;32476;50.002;11.854;2022-10-31T15:02:07;17.80;99.90
46730;DHT22;32476;50.002;11.854;2022-10-31T15:04:38;17.70;99.90
46730;DHT22;32476;50.002;11.854;2022-10-31T15:07:50;17.60;99.90
46730;DHT22;32476;50.002;11.854;2022-10-31T15:10:30;17.50;99.90
46730;DHT22;32476;50.002;11.854;2022-10-31T15:13:09;17.50;99.90
46730;DHT22;32476;50.002;11.854;2022-10-31T15:15:41;17.30;99.90
46730;DHT22;32476;50.002;11.854;2022-10-31T15:18:16;17.20;99.90
46730;DHT22;32476;50.002;11.854;2022-10-31T15:20:45;17.10;99.90
46730;DHT22;32476;50.002;11.854;2022-10-31T15:23:16;17.00;99.90
46730;DHT22;32476;50.002;11.854;2022-10-31T15:25:49;16.90;99.90
46730;DHT22;32476;50.002;11.854;2022-10-31T15:28:21;16.80;99.90
46730;DHT22;32476;50.002;11.854;2022-10-31T15:30:58;16.80;99.90
46730;DHT22;32476;50.002;11.854;2022-10-31T15:33:27;16.70;99.90
46730;DHT22;32476;50.002;11.854;2022-10-31T15:36:01;16.60;99.90
46730;DHT22;32476;50.002;11.854;2022-10-31T15:38:29;16.50;99.90
46730;DHT22;32476;50.002;11.854;2022-10-31T15:41:03;16.40;99.90
46730;DHT22;32476;50.002;11.854;2022-10-31T15:43:44;16.30;99.90
46730;DHT22;32476;50.002;11.854;2022-10-31T15:46:13;16.30;99.90
46730;DHT22;32476;50.002;11.854;2022-10-31T15:48:44;16.20;99.90
46730;DHT22;32476;50.002;11.854;2022-10-31T15:51:13;16.20;99.90
46730;DHT22;32476;50.002;11.854;2022-10-31T15:53:50;16.20;99.90
46730;DHT22;32476;50.002;11.854;2022-10-31T15:56:28;16.10;99.90
46730;DHT22;32476;50.002;11.854;2022-10-31T15:58:58;16.00;99.90
46730;DHT22;32476;50.002;11.854;2022-10-31T16:01:31;15.90;99.90
46730;DHT22;32476;50.002;11.854;2022-10-31T16:06:33;15.70;99.90
46730;DHT22;32476;50.002;11.854;2022-10-31T16:09:00;15.70;99.90
46730;DHT22;32476;50.002;11.854;2022-10-31T16:11:35;15.70;99.90
46730;DHT22;32476;50.002;11.854;2022-10-31T16:16:42;15.80;99.90
46730;DHT22;32476;50.002;11.854;2022-10-31T16:19:17;15.70;99.90
46730;DHT22;32476;50.002;11.854;2022-10-31T16:21:46;15.70;99.90
46730;DHT22;32476;50.002;11.854;2022-10-31T16:24:19;15.60;99.90
46730;DHT22;32476;50.002;11.854;2022-10-31T16:26:52;15.60;99.90
46730;DHT22;32476;50.002;11.854;2022-10-31T16:29:27;15.60;99.90
46730;DHT22;32476;50.002;11.854;2022-10-31T16:32:03;15.60;99.90
46730;DHT22;32476;50.002;11.854;2022-10-31T16:34:30;15.50;99.90
46730;DHT22;32476;50.002;11.854;2022-10-31T16:36:56;15.40;99.90
46730;DHT22;32476;50.002;11.854;2022-10-31T16:39:22;15.40;99.90
46730;DHT22;32476;50.002;11.854;2022-10-31T16:41:55;15.30;99.90
46730;DHT22;32476;50.002;11.854;2022-10-31T16:44:26;15.30;99.90
46730;DHT22;32476;50.002;11.854;2022-10-31T16:49:31;15.10;99.90
46730;DHT22;32476;50.002;11.854;2022-10-31T16:51:59;15.20;99.90
46730;DHT22;32476;50.002;11.854;2022-10-31T16:54:25;15.30;99.90
46730;DHT22;32476;50.002;11.854;2022-10-31T16:56:51;15.20;99.90
46730;DHT22;32476;50.002;11.854;2022-10-31T16:59:18;15.10;99.90
46730;DHT22;32476;50.002;11.854;2022-10-31T17:01:48;15.10;99.90
46730;DHT22;32476;50.002;11.854;2022-10-31T17:04:14;15.10;99.90
46730;DHT22;32476;50.002;11.854;2022-10-31T17:06:42;15.00;99.90
46730;DHT22;32476;50.002;11.854;2022-10-31T17:09:08;14.90;99.90
46730;DHT22;32476;50.002;11.854;2022-10-31T17:11:34;15.10;99.90
46730;DHT22;32476;50.002;11.854;2022-10-31T17:14:03;15.10;99.90
46730;DHT22;32476;50.002;11.854;2022-10-31T17:16:29;15.00;99.90
46730;DHT22;32476;50.002;11.854;2022-10-31T17:18:55;15.00;99.90
46730;DHT22;32476;50.002;11.854;2022-10-31T17:21:24;14.80;99.90
46730;DHT22;32476;50.002;11.854;2022-10-31T17:23:52;14.70;99.90
46730;DHT22;32476;50.002;11.854;2022-10-31T17:26:18;14.60;99.90
46730;DHT22;32476;50.002;11.854;2022-10-31T17:28:46;14.60;99.90
46730;DHT22;32476;50.002;11.854;2022-10-31T17:31:21;14.50;99.90
46730;DHT22;32476;50.002;11.854;2022-10-31T17:33:50;14.50;99.90
46730;DHT22;32476;50.002;11.854;2022-10-31T17:36:19;14.50;99.90
46730;DHT22;32476;50.002;11.854;2022-10-31T17:38:45;14.40;99.90
46730;DHT22;32476;50.002;11.854;2022-10-31T17:41:13;14.40;99.90
46730;DHT22;32476;50.002;11.854;2022-10-31T17:43:39;14.40;99.90
46730;DHT22;32476;50.002;11.854;2022-10-31T17:46:05;14.30;99.90
46730;DHT22;32476;50.002;11.854;2022-10-31T17:48:34;14.30;99.90
46730;DHT22;32476;50.002;11.854;2022-10-31T17:51:02;14.30;99.90
46730;DHT22;32476;50.002;11.854;2022-10-31T17:53:31;14.20;99.90
46730;DHT22;32476;50.002;11.854;2022-10-31T17:56:10;14.30;99.90
46730;DHT22;32476;50.002;11.854;2022-10-31T17:58:36;14.20;99.90
46730;DHT22;32476;50.002;11.854;2022-10-31T18:01:09;14.30;99.90
46730;DHT22;32476;50.002;11.854;2022-10-31T18:03:38;14.20;99.90
46730;DHT22;32476;50.002;11.854;2022-10-31T18:06:06;14.20;99.90
46730;DHT22;32476;50.002;11.854;2022-10-31T18:08:35;14.10;99.90
46730;DHT22;32476;50.002;11.854;2022-10-31T18:11:10;14.10;99.90
46730;DHT22;32476;50.002;11.854;2022-10-31T18:13:40;14.10;99.90